Agia Anna — SW8197 — position and weather

sailwx.info

Track history (hours):
 
Tides and Currents Weather Stations Pressure Air Temp Water Temp Dewpoint Dewpoint Depression Visibility Wind Speed Wind Dir Waves Ship Positions

Agia Anna

Last reported at 2018-May-20 13:06 UTC. Time now 2018-May-20 21:50 UTC.
Position N 40°17' E 024°04'.

Length 32 m; draft 2 m.

Type: Passenger vessel. MMSI: 237010400.

Date/timePositionNaut miles runAvg speedWind from/ knotsBaromVisibWave heightAir tempDewpointWater temp
2018-May-20 13:06N 40°17' E 024°04'1 9.6
2018-May-20 13:00N 40°17' E 024°05'4 7.8
2018-May-20 12:26N 40°15' E 024°10'5 6.0
2018-May-20 11:32N 40°11' E 024°15'4 4.6
2018-May-20 10:38N 40°08' E 024°17'3 4.7
2018-May-20 10:00N 40°10' E 024°16'3 5.0
2018-May-20 09:26N 40°12' E 024°13'2 5.5
2018-May-20 09:00N 40°14' E 024°11'10 8.2
2018-May-20 07:50N 40°18' E 023°60'2 0.1
2018-May-19 12:53N 40°17' E 024°03'11 7.0
2018-May-19 11:19N 40°11' E 024°14'4 5.1
2018-May-19 10:32N 40°08' E 024°17'2 4.7
2018-May-19 10:02N 40°10' E 024°16'1 5.2
2018-May-19 09:52N 40°11' E 024°15'2 4.8
2018-May-19 09:23N 40°12' E 024°13'1 1.2
2018-May-19 08:26N 40°11' E 024°14'4 3.9
2018-May-19 07:19N 40°08' E 024°17'2 5.1
2018-May-19 06:58N 40°09' E 024°17'2 4.5
2018-May-19 06:27N 40°11' E 024°15'3 5.1
2018-May-19 05:51N 40°14' E 024°13'3 6.1
2018-May-19 05:24N 40°16' E 024°10'8 7.6
2018-May-19 04:18N 40°19' E 024°00'6 0.4
2018-May-18 13:24N 40°16' E 024°07'7 5.6
2018-May-18 12:08N 40°11' E 024°14'1 9.7
2018-May-18 12:00N 40°10' E 024°15'3 2.5
2018-May-18 10:56N 40°08' E 024°17'2 4.2
2018-May-18 10:30N 40°09' E 024°17'3 5.1
2018-May-18 09:59N 40°11' E 024°14'0 0.2
2018-May-18 08:26N 40°11' E 024°14'4 2.3
2018-May-18 06:37N 40°08' E 024°17'1 3.9
2018-May-18 06:15N 40°09' E 024°17'1 2.9
2018-May-18 05:55N 40°10' E 024°16'3 6.6
2018-May-18 05:30N 40°12' E 024°13'2 4.8
2018-May-18 05:00N 40°14' E 024°12'10 8.8
2018-May-18 03:50N 40°19' E 024°00'1 0.1
2018-May-17 14:26N 40°19' E 023°59'9 8.4
2018-May-17 13:24N 40°15' E 024°09'6 6.2
2018-May-17 12:25N 40°11' E 024°14'4 2.9
2018-May-17 11:00N 40°08' E 024°17'2 4.7
2018-May-17 10:30N 40°10' E 024°16'2 1.0
2018-May-17 08:21N 40°11' E 024°14'4 2.3
2018-May-17 06:32N 40°08' E 024°17'0 8.5
2018-May-17 06:30N 40°08' E 024°17'2 4.4
2018-May-17 06:00N 40°10' E 024°16'5 6.1
2018-May-17 05:11N 40°14' E 024°12'1 5.3
2018-May-17 05:00N 40°14' E 024°11'10 0.7
2018-May-16 14:23N 40°19' E 024°00'17 5.0
2018-May-16 10:58N 40°08' E 024°17'2 4.5
2018-May-16 10:30N 40°10' E 024°17'4 5.5
2018-May-16 09:51N 40°12' E 024°13'1 1.0
2018-May-16 08:38N 40°11' E 024°14'4 2.3
2018-May-16 06:49N 40°08' E 024°17'2 3.8
2018-May-16 06:24N 40°09' E 024°17'2 5.1
2018-May-16 05:57N 40°11' E 024°15'3 5.2
2018-May-16 05:20N 40°14' E 024°12'3 7.1
2018-May-16 04:59N 40°16' E 024°10'4 6.3
2018-May-16 04:25N 40°17' E 024°06'3 0.2
2018-May-15 13:18N 40°15' E 024°08'6 6.8
2018-May-15 12:27N 40°11' E 024°14'4 2.8
2018-May-15 10:58N 40°08' E 024°17'2 4.8
2018-May-15 10:31N 40°10' E 024°16'3 5.3
2018-May-15 09:54N 40°12' E 024°13'0 0.3
2018-May-15 08:39N 40°12' E 024°13'1 8.0
2018-May-15 08:29N 40°11' E 024°14'2 4.6
2018-May-15 08:00N 40°10' E 024°16'2 1.8
2018-May-15 06:39N 40°08' E 024°17'1 4.1
2018-May-15 06:29N 40°08' E 024°17'3 5.5
2018-May-15 05:57N 40°11' E 024°15'4 4.9
2018-May-15 05:11N 40°14' E 024°12'1 6.2
2018-May-15 04:59N 40°15' E 024°11'3 0.2
2018-May-14 13:23N 40°15' E 024°07'7 6.3
2018-May-14 12:18N 40°11' E 024°14'3 9.3
2018-May-14 11:58N 40°09' E 024°16'1 1.5
2018-May-14 11:00N 40°08' E 024°17'2 4.6
2018-May-14 10:30N 40°10' E 024°17'2 4.7
2018-May-14 09:59N 40°11' E 024°14'0 0.1
2018-May-14 08:22N 40°11' E 024°14'4 2.4
2018-May-14 06:31N 40°08' E 024°17'0 8.5
2018-May-14 06:30N 40°08' E 024°17'2 4.1
2018-May-14 06:00N 40°10' E 024°17'3 6.2
2018-May-14 05:30N 40°12' E 024°13'2 5.0
2018-May-14 05:00N 40°14' E 024°12'6 0.4
2018-May-13 13:04N 40°17' E 024°04'1 8.8
2018-May-13 12:58N 40°17' E 024°05'4 8.8
2018-May-13 12:30N 40°16' E 024°10'5 5.2
2018-May-13 11:28N 40°11' E 024°14'4 4.5
2018-May-13 10:32N 40°08' E 024°17'2 4.4
2018-May-13 10:06N 40°09' E 024°17'1 5.5
2018-May-13 09:53N 40°10' E 024°16'5 4.8
2018-May-13 08:54N 40°14' E 024°12'8 0.4
2018-May-12 12:58N 40°17' E 024°03'4 7.7
2018-May-12 12:27N 40°17' E 024°08'3 7.5
2018-May-12 11:59N 40°15' E 024°11'4 5.7
2018-May-12 11:15N 40°11' E 024°14'3 2.3
2018-May-12 10:06N 40°09' E 024°17'1 5.3
2018-May-12 09:59N 40°10' E 024°16'1 0.2
2018-May-12 07:01N 40°09' E 024°17'0 7.5
2018-May-12 06:58N 40°10' E 024°17'3 5.3
2018-May-12 06:27N 40°11' E 024°14'3 5.0
2018-May-12 05:52N 40°14' E 024°12'6 6.0
2018-May-12 04:52N 40°17' E 024°05'4 8.8
2018-May-12 04:24N 40°18' E 024°00'0 0.0
2018-May-11 14:13N 40°19' E 023°60'8 8.9
2018-May-11 13:18N 40°15' E 024°09'7 2.6
2018-May-11 10:30N 40°10' E 024°17'2 1.5
2018-May-11 08:50N 40°11' E 024°14'2 5.2
2018-May-11 08:27N 40°10' E 024°16'3 1.9
2018-May-11 07:02N 40°08' E 024°17'1 4.3
2018-May-11 06:50N 40°08' E 024°17'2 4.8
2018-May-11 06:30N 40°10' E 024°16'3 5.4
2018-May-11 05:54N 40°12' E 024°13'2 4.9
2018-May-11 05:30N 40°14' E 024°12'4 5.0
2018-May-11 04:38N 40°17' E 024°08'3 0.2
2018-May-10 13:15N 40°15' E 024°11'  
Track history (hours):
 
Tides and Currents Weather Stations Pressure Air Temp Water Temp Dewpoint Dewpoint Depression Visibility Wind Speed Wind Dir Waves Ship Positions

Agia Anna

Last reported at 2018-May-20 13:06 UTC. Time now 2018-May-20 21:50 UTC.
Position N 40°17' E 024°04'.

Length 32 m; draft 2 m.

Type: Passenger vessel. MMSI: 237010400.

Date/timePositionNaut miles runAvg speedWind from/ knotsBaromVisibWave heightAir tempDewpointWater temp
2018-May-20 13:06N 40°17' E 024°04'1 9.6
2018-May-20 13:00N 40°17' E 024°05'4 7.8
2018-May-20 12:26N 40°15' E 024°10'5 6.0
2018-May-20 11:32N 40°11' E 024°15'4 4.6
2018-May-20 10:38N 40°08' E 024°17'3 4.7
2018-May-20 10:00N 40°10' E 024°16'3 5.0
2018-May-20 09:26N 40°12' E 024°13'2 5.5
2018-May-20 09:00N 40°14' E 024°11'10 8.2
2018-May-20 07:50N 40°18' E 023°60'2 0.1
2018-May-19 12:53N 40°17' E 024°03'11 7.0
2018-May-19 11:19N 40°11' E 024°14'4 5.1
2018-May-19 10:32N 40°08' E 024°17'2 4.7
2018-May-19 10:02N 40°10' E 024°16'1 5.2
2018-May-19 09:52N 40°11' E 024°15'2 4.8
2018-May-19 09:23N 40°12' E 024°13'1 1.2
2018-May-19 08:26N 40°11' E 024°14'4 3.9
2018-May-19 07:19N 40°08' E 024°17'2 5.1
2018-May-19 06:58N 40°09' E 024°17'2 4.5
2018-May-19 06:27N 40°11' E 024°15'3 5.1
2018-May-19 05:51N 40°14' E 024°13'3 6.1
2018-May-19 05:24N 40°16' E 024°10'8 7.6
2018-May-19 04:18N 40°19' E 024°00'6 0.4
2018-May-18 13:24N 40°16' E 024°07'7 5.6
2018-May-18 12:08N 40°11' E 024°14'1 9.7
2018-May-18 12:00N 40°10' E 024°15'3 2.5
2018-May-18 10:56N 40°08' E 024°17'2 4.2
2018-May-18 10:30N 40°09' E 024°17'3 5.1
2018-May-18 09:59N 40°11' E 024°14'0 0.2
2018-May-18 08:26N 40°11' E 024°14'4 2.3
2018-May-18 06:37N 40°08' E 024°17'1 3.9
2018-May-18 06:15N 40°09' E 024°17'1 2.9
2018-May-18 05:55N 40°10' E 024°16'3 6.6
2018-May-18 05:30N 40°12' E 024°13'2 4.8
2018-May-18 05:00N 40°14' E 024°12'10 8.8
2018-May-18 03:50N 40°19' E 024°00'1 0.1
2018-May-17 14:26N 40°19' E 023°59'9 8.4
2018-May-17 13:24N 40°15' E 024°09'6 6.2
2018-May-17 12:25N 40°11' E 024°14'4 2.9
2018-May-17 11:00N 40°08' E 024°17'2 4.7
2018-May-17 10:30N 40°10' E 024°16'2 1.0
2018-May-17 08:21N 40°11' E 024°14'4 2.3
2018-May-17 06:32N 40°08' E 024°17'0 8.5
2018-May-17 06:30N 40°08' E 024°17'2 4.4
2018-May-17 06:00N 40°10' E 024°16'5 6.1
2018-May-17 05:11N 40°14' E 024°12'1 5.3
2018-May-17 05:00N 40°14' E 024°11'10 0.7
2018-May-16 14:23N 40°19' E 024°00'17 5.0
2018-May-16 10:58N 40°08' E 024°17'2 4.5
2018-May-16 10:30N 40°10' E 024°17'4 5.5
2018-May-16 09:51N 40°12' E 024°13'1 1.0
2018-May-16 08:38N 40°11' E 024°14'4 2.3
2018-May-16 06:49N 40°08' E 024°17'2 3.8
2018-May-16 06:24N 40°09' E 024°17'2 5.1
2018-May-16 05:57N 40°11' E 024°15'3 5.2
2018-May-16 05:20N 40°14' E 024°12'3 7.1
2018-May-16 04:59N 40°16' E 024°10'4 6.3
2018-May-16 04:25N 40°17' E 024°06'3 0.2
2018-May-15 13:18N 40°15' E 024°08'6 6.8
2018-May-15 12:27N 40°11' E 024°14'4 2.8
2018-May-15 10:58N 40°08' E 024°17'2 4.8
2018-May-15 10:31N 40°10' E 024°16'3 5.3
2018-May-15 09:54N 40°12' E 024°13'0 0.3
2018-May-15 08:39N 40°12' E 024°13'1 8.0
2018-May-15 08:29N 40°11' E 024°14'2 4.6
2018-May-15 08:00N 40°10' E 024°16'2 1.8
2018-May-15 06:39N 40°08' E 024°17'1 4.1
2018-May-15 06:29N 40°08' E 024°17'3 5.5
2018-May-15 05:57N 40°11' E 024°15'4 4.9
2018-May-15 05:11N 40°14' E 024°12'1 6.2
2018-May-15 04:59N 40°15' E 024°11'3 0.2
2018-May-14 13:23N 40°15' E 024°07'7 6.3
2018-May-14 12:18N 40°11' E 024°14'3 9.3
2018-May-14 11:58N 40°09' E 024°16'1 1.5
2018-May-14 11:00N 40°08' E 024°17'2 4.6
2018-May-14 10:30N 40°10' E 024°17'2 4.7
2018-May-14 09:59N 40°11' E 024°14'0 0.1
2018-May-14 08:22N 40°11' E 024°14'4 2.4
2018-May-14 06:31N 40°08' E 024°17'0 8.5
2018-May-14 06:30N 40°08' E 024°17'2 4.1
2018-May-14 06:00N 40°10' E 024°17'3 6.2
2018-May-14 05:30N 40°12' E 024°13'2 5.0
2018-May-14 05:00N 40°14' E 024°12'6 0.4
2018-May-13 13:04N 40°17' E 024°04'1 8.8
2018-May-13 12:58N 40°17' E 024°05'4 8.8
2018-May-13 12:30N 40°16' E 024°10'5 5.2
2018-May-13 11:28N 40°11' E 024°14'4 4.5
2018-May-13 10:32N 40°08' E 024°17'2 4.4
2018-May-13 10:06N 40°09' E 024°17'1 5.5
2018-May-13 09:53N 40°10' E 024°16'5 4.8
2018-May-13 08:54N 40°14' E 024°12'8 0.4
2018-May-12 12:58N 40°17' E 024°03'4 7.7
2018-May-12 12:27N 40°17' E 024°08'3 7.5
2018-May-12 11:59N 40°15' E 024°11'4 5.7
2018-May-12 11:15N 40°11' E 024°14'3 2.3
2018-May-12 10:06N 40°09' E 024°17'1 5.3
2018-May-12 09:59N 40°10' E 024°16'1 0.2
2018-May-12 07:01N 40°09' E 024°17'0 7.5
2018-May-12 06:58N 40°10' E 024°17'3 5.3
2018-May-12 06:27N 40°11' E 024°14'3 5.0
2018-May-12 05:52N 40°14' E 024°12'6 6.0
2018-May-12 04:52N 40°17' E 024°05'4 8.8
2018-May-12 04:24N 40°18' E 024°00'0 0.0
2018-May-11 14:13N 40°19' E 023°60'8 8.9
2018-May-11 13:18N 40°15' E 024°09'7 2.6
2018-May-11 10:30N 40°10' E 024°17'2 1.5
2018-May-11 08:50N 40°11' E 024°14'2 5.2
2018-May-11 08:27N 40°10' E 024°16'3 1.9
2018-May-11 07:02N 40°08' E 024°17'1 4.3
2018-May-11 06:50N 40°08' E 024°17'2 4.8
2018-May-11 06:30N 40°10' E 024°16'3 5.4
2018-May-11 05:54N 40°12' E 024°13'2 4.9
2018-May-11 05:30N 40°14' E 024°12'4 5.0
2018-May-11 04:38N 40°17' E 024°08'3 0.2
2018-May-10 13:15N 40°15' E 024°11'  

Dump ship's entire track history